Time;durP1;ratioP1;P1;durP2;ratioP2;P2;SDS_P1;SDS_P2;PMS_P1;PMS_P2;Temp;Humidity;BMP_temperature;BMP_pressure;BME280_temperature;BME280_humidity;BME280_pressure;Samples;Min_cycle;Max_cycle;Signal;HPM_P1;HPM_P2
2023/09/13 00:01:03;;;;;;;15.77;5.15;;;;;;;27.01;38.92;99442.41;4475390;32;34665;-67
2023/09/13 00:03:31;;;;;;;14.75;4.85;;;;;;;27.00;38.87;99438.00;4484423;32;33996;-67
2023/09/13 00:05:59;;;;;;;11.02;4.62;;;;;;;26.99;38.88;99434.44;4472133;31;33821;-67
2023/09/13 00:08:27;;;;;;;13.38;5.78;;;;;;;26.98;38.88;99438.25;4476526;31;33655;-68
2023/09/13 00:11:04;;;;;;;12.32;5.10;;;;;;;26.98;38.86;99434.69;4492948;31;34665;-68
2023/09/13 00:13:32;;;;;;;17.02;5.32;;;;;;;26.96;38.84;99432.22;4482747;32;34378;-70
2023/09/13 00:16:00;;;;;;;11.63;4.32;;;;;;;26.96;38.80;99437.72;4471835;32;33739;-69
2023/09/13 00:18:27;;;;;;;14.35;5.22;;;;;;;26.94;38.83;99431.66;4477142;32;33079;-68
2023/09/13 00:20:55;;;;;;;14.77;5.57;;;;;;;26.92;38.75;99426.44;4483243;32;33649;-68
2023/09/13 00:23:23;;;;;;;14.13;5.78;;;;;;;26.91;38.70;99426.72;4484292;32;33728;-68
2023/09/13 00:25:50;;;;;;;10.55;5.50;;;;;;;26.88;38.71;99428.03;4484561;32;33328;-69
2023/09/13 00:28:17;;;;;;;18.65;5.78;;;;;;;26.89;38.87;99423.38;4484170;32;33006;-68
2023/09/13 00:30:45;;;;;;;12.57;5.50;;;;;;;26.88;38.80;99422.56;4484283;32;34758;-67
2023/09/13 00:33:13;;;;;;;10.63;5.12;;;;;;;26.89;38.83;99418.72;4484290;32;33745;-67
2023/09/13 00:35:40;;;;;;;12.52;5.10;;;;;;;26.87;38.87;99420.91;4483190;32;33996;-67
2023/09/13 00:38:08;;;;;;;13.50;5.47;;;;;;;26.87;38.85;99414.63;4483753;32;34107;-67
2023/09/13 00:40:36;;;;;;;13.05;4.87;;;;;;;26.86;38.81;99416.53;4466853;32;33329;-68
2023/09/13 00:43:03;;;;;;;12.88;5.82;;;;;;;26.85;38.83;99422.25;4441623;32;32967;-68
2023/09/13 00:45:32;;;;;;;12.50;5.03;;;;;;;26.85;38.84;99424.97;4467524;32;33786;-67
2023/09/13 00:48:00;;;;;;;13.18;5.28;;;;;;;26.84;38.85;99424.16;4454404;32;33251;-68
2023/09/13 00:50:28;;;;;;;11.12;4.70;;;;;;;26.84;38.78;99423.34;4467200;32;33794;-67
2023/09/13 00:53:07;;;;;;;11.68;5.10;;;;;;;26.84;38.76;99426.06;4455764;32;33994;-67
2023/09/13 00:55:34;;;;;;;13.62;4.80;;;;;;;26.84;38.76;99428.81;4441389;32;33783;-69
2023/09/13 00:58:03;;;;;;;11.00;5.45;;;;;;;26.82;38.76;99426.34;4441970;32;32807;-67
2023/09/13 01:00:32;;;;;;;12.68;5.50;;;;;;;26.80;38.66;99422.19;4466979;32;34686;-67
2023/09/13 01:02:59;;;;;;;13.75;5.18;;;;;;;26.80;38.56;99428.50;4454405;32;33070;-68
2023/09/13 01:05:27;;;;;;;12.43;5.47;;;;;;;26.78;38.51;99424.38;4454241;32;34530;-69
2023/09/13 01:07:55;;;;;;;8.85;4.93;;;;;;;26.77;38.62;99428.22;4466935;32;33907;-69
2023/09/13 01:10:23;;;;;;;14.32;4.95;;;;;;;26.76;38.63;99432.00;4467163;32;33551;-68
2023/09/13 01:12:50;;;;;;;11.93;4.97;;;;;;;26.75;38.65;99431.19;4454308;32;33042;-67
2023/09/13 01:15:18;;;;;;;12.63;4.75;;;;;;;26.76;38.62;99435.56;4456857;32;34294;-67
2023/09/13 01:17:58;;;;;;;10.70;4.30;;;;;;;26.76;38.63;99445.69;4444015;32;32382;-68
2023/09/13 01:21:05;;;;;;;14.35;5.00;;;;;;;26.75;38.63;99444.03;4482459;32;33724;-67
2023/09/13 01:23:57;;;;;;;17.02;4.93;;;;;;;26.78;38.61;99435.31;4482798;32;33073;-68
2023/09/13 01:26:53;;;;;;;11.52;4.45;;;;;;;26.75;38.54;99435.84;4483828;32;33847;-67
2023/09/13 01:29:20;;;;;;;12.25;5.80;;;;;;;26.75;38.59;99436.66;4483809;32;34167;-66
2023/09/13 01:31:48;;;;;;;10.40;5.12;;;;;;;26.71;38.56;99433.59;4469560;32;34679;-67
2023/09/13 01:34:16;;;;;;;10.82;4.93;;;;;;;26.71;38.52;99439.06;4469697;32;33372;-67
2023/09/13 01:36:44;;;;;;;9.75;4.72;;;;;;;26.71;38.48;99441.81;4469529;32;33821;-67
2023/09/13 01:39:11;;;;;;;10.07;4.53;;;;;;;26.71;38.48;99441.81;4456832;32;33433;-70
2023/09/13 01:42:01;;;;;;;10.27;5.47;;;;;;;26.73;38.44;99440.75;4469165;32;34520;-67
2023/09/13 01:44:29;;;;;;;14.18;5.07;;;;;;;26.75;38.43;99438.56;4482335;32;34003;-68
2023/09/13 01:46:56;;;;;;;15.38;4.70;;;;;;;26.73;38.38;99435.28;4468875;32;32632;-67
2023/09/13 01:49:24;;;;;;;12.32;5.32;;;;;;;26.71;38.30;99438.25;4469420;32;32621;-68
2023/09/13 01:51:51;;;;;;;11.38;4.97;;;;;;;26.71;38.27;99443.72;4484105;32;33985;-67
2023/09/13 01:54:19;;;;;;;14.07;5.05;;;;;;;26.72;38.21;99431.72;4483918;32;33923;-68
2023/09/13 01:56:46;;;;;;;19.60;5.95;;;;;;;26.71;38.21;99443.72;4484221;32;33461;-69
2023/09/13 01:59:14;;;;;;;11.77;5.50;;;;;;;26.71;38.12;99439.06;4484175;32;33488;-68
2023/09/13 02:01:42;;;;;;;12.18;5.00;;;;;;;26.69;38.11;99438.50;4457959;32;33760;-68
2023/09/13 02:04:10;;;;;;;14.40;5.30;;;;;;;26.69;38.02;99443.16;4485395;32;34762;-68
2023/09/13 02:06:37;;;;;;;12.15;4.47;;;;;;;26.69;37.89;99448.62;4484128;32;34543;-68
2023/09/13 02:09:05;;;;;;;14.75;5.57;;;;;;;26.68;38.01;99439.59;4485103;32;34189;-68
2023/09/13 02:11:33;;;;;;;10.55;5.22;;;;;;;26.67;37.97;99445.31;4483996;32;34002;-68
2023/09/13 02:14:00;;;;;;;14.50;4.75;;;;;;;26.67;37.94;99442.56;4458162;32;33852;-67
2023/09/13 02:16:28;;;;;;;15.00;5.68;;;;;;;26.67;37.97;99435.22;4485005;32;33892;-68
2023/09/13 02:18:57;;;;;;;10.55;4.78;;;;;;;26.66;37.94;99430.81;4471171;32;33386;-67
2023/09/13 02:21:25;;;;;;;9.68;4.62;;;;;;;26.67;37.96;99426.16;4471191;32;34675;-68
2023/09/13 02:23:53;;;;;;;12.75;4.90;;;;;;;26.66;37.97;99430.81;4483763;32;35328;-67
2023/09/13 02:26:21;;;;;;;7.45;4.22;;;;;;;26.66;37.94;99432.72;4483906;32;33827;-66
2023/09/13 02:28:51;;;;;;;10.68;4.85;;;;;;;26.65;37.99;99425.59;4483837;32;34103;-67
2023/09/13 02:31:26;;;;;;;12.73;4.68;;;;;;;26.65;37.98;99426.44;4483723;32;33747;-66
2023/09/13 02:33:54;;;;;;;9.57;4.82;;;;;;;26.65;38.03;99425.59;4483833;32;33900;-68
2023/09/13 02:36:22;;;;;;;8.93;5.03;;;;;;;26.63;38.04;99431.34;4470696;32;33606;-66
2023/09/13 02:38:51;;;;;;;11.60;4.85;;;;;;;26.62;38.02;99432.41;4484009;32;33724;-66
2023/09/13 02:41:19;;;;;;;12.50;4.70;;;;;;;26.62;38.03;99428.84;4483814;32;33966;-67
2023/09/13 02:43:46;;;;;;;10.63;4.85;;;;;;;26.61;38.11;99428.00;4483586;32;34666;-67
2023/09/13 02:46:14;;;;;;;14.40;5.20;;;;;;;26.60;38.11;99437.31;4483721;32;33799;-66
2023/09/13 02:48:42;;;;;;;11.65;5.32;;;;;;;26.61;38.11;99432.66;4483899;32;33127;-68
2023/09/13 02:51:12;;;;;;;12.65;4.87;;;;;;;26.61;38.14;99432.66;4484846;32;34527;-67
2023/09/13 02:53:39;;;;;;;9.63;4.93;;;;;;;26.60;38.15;99431.84;4470876;32;32861;-66
2023/09/13 02:56:07;;;;;;;14.80;6.18;;;;;;;26.61;38.10;99438.13;4485000;32;33942;-67
2023/09/13 02:58:35;;;;;;;9.52;4.93;;;;;;;26.57;38.17;99440.56;4484787;32;34284;-66
2023/09/13 03:01:07;;;;;;;9.77;4.90;;;;;;;26.56;38.19;99438.09;4484822;32;33581;-68
2023/09/13 03:03:35;;;;;;;10.18;4.40;;;;;;;26.53;38.20;99439.41;4483550;32;34099;-67
2023/09/13 03:06:13;;;;;;;10.02;4.78;;;;;;;26.52;38.08;99432.28;4483383;32;33214;-67
2023/09/13 03:08:42;;;;;;;12.18;4.70;;;;;;;26.52;38.09;99435.03;4485087;32;34211;-67
2023/09/13 03:11:13;;;;;;;12.60;5.18;;;;;;;26.50;38.15;99437.22;4483689;32;34191;-67
2023/09/13 03:13:42;;;;;;;9.05;4.72;;;;;;;26.50;38.16;99429.00;4470767;32;33985;-67
2023/09/13 03:16:17;;;;;;;12.37;4.82;;;;;;;26.49;38.13;99424.63;4461886;32;33615;-67
2023/09/13 03:18:46;;;;;;;11.45;4.68;;;;;;;26.49;38.09;99423.75;4467755;32;32981;-66
2023/09/13 03:21:14;;;;;;;12.70;5.00;;;;;;;26.49;38.17;99426.50;4455407;32;33820;-67
2023/09/13 03:23:43;;;;;;;12.90;5.70;;;;;;;26.48;38.07;99420.19;4454889;32;33717;-68
2023/09/13 03:26:22;;;;;;;10.80;5.28;;;;;;;26.47;38.09;99424.03;4442301;32;32916;-67
2023/09/13 03:28:52;;;;;;;10.55;4.40;;;;;;;26.45;38.15;99427.03;4443336;32;32701;-66
2023/09/13 03:31:21;;;;;;;9.40;4.97;;;;;;;26.46;38.03;99425.12;4442081;32;33942;-67
2023/09/13 03:33:49;;;;;;;10.25;4.75;;;;;;;26.46;38.02;99425.12;4454988;32;33037;-67
2023/09/13 03:36:17;;;;;;;14.10;5.22;;;;;;;26.46;38.00;99425.12;4442245;32;32810;-67
2023/09/13 03:38:46;;;;;;;12.90;5.32;;;;;;;26.44;37.95;99425.38;4442277;32;32279;-67
2023/09/13 03:41:16;;;;;;;14.80;5.57;;;;;;;26.46;38.00;99427.84;4442241;32;33706;-67
2023/09/13 03:43:43;;;;;;;11.12;4.90;;;;;;;26.42;38.06;99418.47;4454879;32;33468;-68
2023/09/13 03:46:12;;;;;;;11.73;5.15;;;;;;;26.43;38.02;99422.88;4467663;32;33756;-67
2023/09/13 03:48:39;;;;;;;10.00;5.00;;;;;;;26.41;37.96;99420.38;4468701;32;34234;-67
2023/09/13 03:51:07;;;;;;;12.02;5.15;;;;;;;26.40;38.00;99417.91;4467665;32;33834;-67
2023/09/13 03:53:35;;;;;;;12.18;5.35;;;;;;;26.40;37.95;99424.19;4454686;32;33044;-67
2023/09/13 03:56:03;;;;;;;13.18;5.50;;;;;;;26.39;37.93;99429.91;4454671;32;33834;-67
2023/09/13 03:58:35;;;;;;;13.48;5.18;;;;;;;26.37;37.99;99424.69;4454562;32;32015;-67
2023/09/13 04:01:04;;;;;;;10.38;5.28;;;;;;;26.37;38.01;99424.69;4467692;32;34088;-69
2023/09/13 04:03:32;;;;;;;14.15;5.47;;;;;;;26.38;37.99;99425.53;4467550;32;34571;-67
2023/09/13 04:06:00;;;;;;;14.73;5.22;;;;;;;26.37;37.98;99426.62;4467708;32;34675;-68
2023/09/13 04:08:28;;;;;;;9.23;5.68;;;;;;;26.36;37.92;99434.00;4468780;32;34174;-68
2023/09/13 04:10:56;;;;;;;14.87;5.20;;;;;;;26.37;37.97;99435.66;4468978;32;33960;-68
2023/09/13 04:13:24;;;;;;;10.20;4.87;;;;;;;26.36;37.96;99433.19;4440759;32;32757;-68
2023/09/13 04:15:52;;;;;;;10.02;5.35;;;;;;;26.35;38.02;99439.72;4458195;32;34898;-69
2023/09/13 04:18:20;;;;;;;12.07;5.53;;;;;;;26.35;38.02;99434.25;4467677;32;34354;-69
2023/09/13 04:20:47;;;;;;;11.52;5.00;;;;;;;26.33;38.01;99434.50;4454350;32;33337;-68
2023/09/13 04:23:15;;;;;;;9.68;5.05;;;;;;;26.32;38.05;99440.22;4454461;32;34443;-68
2023/09/13 04:25:43;;;;;;;10.43;5.18;;;;;;;26.32;38.04;99442.97;4454655;32;33779;-68
2023/09/13 04:28:11;;;;;;;9.73;5.53;;;;;;;26.32;38.12;99446.53;4441580;32;32470;-68
2023/09/13 04:30:38;;;;;;;10.73;5.72;;;;;;;26.32;38.10;99445.69;4467288;32;34697;-68
2023/09/13 04:33:07;;;;;;;12.93;5.80;;;;;;;26.30;38.14;99442.38;4466738;32;33079;-68
2023/09/13 04:35:34;;;;;;;11.02;5.60;;;;;;;26.30;38.13;99434.16;4467413;32;33368;-68
2023/09/13 04:38:02;;;;;;;12.43;5.57;;;;;;;26.29;38.13;99443.47;4454388;32;33213;-68
2023/09/13 04:40:31;;;;;;;11.23;5.80;;;;;;;26.28;38.15;99447.28;4441766;32;33711;-69
2023/09/13 04:43:05;;;;;;;9.55;5.37;;;;;;;26.27;38.09;99451.94;4467319;32;33890;-67
2023/09/13 04:45:34;;;;;;;11.88;5.72;;;;;;;26.28;38.19;99450.03;4467245;32;32662;-68
2023/09/13 04:48:01;;;;;;;17.27;6.32;;;;;;;26.26;38.21;99450.28;4454222;32;33324;-68
2023/09/13 04:50:29;;;;;;;10.95;5.93;;;;;;;26.28;38.25;99458.22;4468468;32;33695;-69
2023/09/13 04:52:57;;;;;;;10.40;5.45;;;;;;;26.27;38.25;99468.34;4467178;32;34795;-70
2023/09/13 04:55:26;;;;;;;12.35;5.87;;;;;;;26.26;38.27;99460.41;4453194;32;33804;-70
2023/09/13 04:57:54;;;;;;;11.65;6.62;;;;;;;26.26;38.27;99458.50;4454304;32;32340;-68
2023/09/13 05:00:26;;;;;;;10.05;5.75;;;;;;;26.27;38.21;99457.41;4454298;32;34737;-70
2023/09/13 05:02:54;;;;;;;11.60;5.35;;;;;;;26.30;38.24;99451.44;4454823;32;33494;-70
2023/09/13 05:05:22;;;;;;;10.32;5.20;;;;;;;26.27;38.24;99457.41;4467184;32;34028;-70
2023/09/13 05:07:50;;;;;;;13.50;6.62;;;;;;;26.26;38.32;99460.41;4454489;32;33631;-68
2023/09/13 05:10:18;;;;;;;12.70;5.57;;;;;;;26.24;38.31;99460.63;4468129;32;34839;-69
2023/09/13 05:12:49;;;;;;;14.25;5.60;;;;;;;26.25;38.41;99466.94;4467037;32;34007;-68
2023/09/13 05:15:16;;;;;;;13.25;5.65;;;;;;;26.25;38.44;99466.94;4454031;32;33690;-70
2023/09/13 05:17:44;;;;;;;15.18;6.15;;;;;;;26.24;38.43;99477.03;4441394;32;32670;-70
2023/09/13 05:20:12;;;;;;;17.25;6.60;;;;;;;26.23;38.38;99471.84;4466854;32;32702;-69
2023/09/13 05:22:40;;;;;;;11.02;6.28;;;;;;;26.22;38.36;99473.75;4453855;32;34050;-71
2023/09/13 05:25:07;;;;;;;11.12;5.90;;;;;;;26.22;38.40;99475.66;4466485;32;33810;-69
2023/09/13 05:27:35;;;;;;;14.02;6.85;;;;;;;26.22;38.49;99473.75;4468023;32;33362;-71
2023/09/13 05:30:03;;;;;;;14.50;6.87;;;;;;;26.22;38.40;99475.66;4466360;32;32916;-69
2023/09/13 05:32:31;;;;;;;13.32;5.87;;;;;;;26.20;38.40;99482.19;4466709;32;34889;-70
2023/09/13 05:34:58;;;;;;;16.10;6.55;;;;;;;26.22;38.51;99487.41;4466798;32;33518;-69
2023/09/13 05:37:26;;;;;;;14.07;6.68;;;;;;;26.24;38.60;99479.78;4466458;32;32014;-69
2023/09/13 05:39:54;;;;;;;11.02;6.15;;;;;;;26.25;38.73;99486.06;4453875;32;32783;-70
2023/09/13 05:42:21;;;;;;;14.98;6.12;;;;;;;26.26;38.80;99485.00;4466541;32;33983;-69
2023/09/13 05:44:49;;;;;;;11.82;6.22;;;;;;;26.24;38.86;99485.25;4466687;32;34532;-68
2023/09/13 05:47:17;;;;;;;16.40;6.30;;;;;;;26.25;38.86;99484.16;4469154;32;33627;-69
2023/09/13 05:49:44;;;;;;;12.13;5.45;;;;;;;26.26;38.85;99483.09;4483420;32;34572;-70
2023/09/13 05:52:12;;;;;;;13.55;6.35;;;;;;;26.27;38.90;99478.47;4481982;32;34366;-69
2023/09/13 05:54:39;;;;;;;11.77;6.00;;;;;;;26.28;38.91;99483.66;4483091;32;34100;-70
2023/09/13 05:57:07;;;;;;;14.87;6.43;;;;;;;26.29;38.96;99479.03;4468818;32;33147;-70
2023/09/13 05:59:39;;;;;;;14.45;5.87;;;;;;;26.29;38.95;99476.28;4482750;32;34500;-67
2023/09/13 06:02:07;;;;;;;13.02;6.05;;;;;;;26.29;39.00;99476.28;4468453;32;33882;-68
2023/09/13 06:04:37;;;;;;;;;;;;;;;26.30;38.99;99480.66;4481891;32;33709;-68
2023/09/13 06:07:05;;;;;;;13.95;6.45;;;;;;;26.39;38.93;99487.34;4483171;32;33212;-69
2023/09/13 06:09:32;;;;;;;11.77;6.03;;;;;;;26.33;39.00;99488.38;4481617;32;34662;-65
2023/09/13 06:12:01;;;;;;;12.68;6.12;;;;;;;26.32;39.08;99494.94;4469238;32;35096;-67
2023/09/13 06:14:30;;;;;;;12.52;5.87;;;;;;;26.31;39.18;99496.84;4468333;32;34573;-67
2023/09/13 06:16:58;;;;;;;12.13;5.50;;;;;;;26.32;39.28;99498.50;4462632;32;32420;-68
2023/09/13 06:19:26;;;;;;;14.27;5.97;;;;;;;26.35;39.26;99497.19;4456117;32;33855;-68
2023/09/13 06:21:55;;;;;;;12.52;6.18;;;;;;;26.34;39.31;99488.13;4481576;32;33248;-68
2023/09/13 06:24:24;;;;;;;12.90;6.00;;;;;;;26.35;39.31;99488.97;4480911;32;34260;-66
2023/09/13 06:26:54;;;;;;;16.00;5.47;;;;;;;26.36;39.41;99487.88;4459412;32;33354;-67
2023/09/13 06:29:21;;;;;;;11.23;6.40;;;;;;;26.37;39.42;99484.88;4473833;32;33502;-67
2023/09/13 06:31:49;;;;;;;13.60;5.85;;;;;;;26.37;39.46;99490.34;4464030;32;34143;-67
2023/09/13 06:34:33;;;;;;;17.92;6.50;;;;;;;26.38;39.50;99488.44;4477721;32;34790;-67
2023/09/13 06:37:02;;;;;;;8.90;5.68;;;;;;;26.38;39.50;99480.22;4468441;32;32405;-67
2023/09/13 06:39:32;;;;;;;10.98;5.55;;;;;;;26.39;39.54;99473.69;4484326;32;34558;-67
2023/09/13 06:42:00;;;;;;;10.70;6.28;;;;;;;26.40;39.56;99478.91;4484998;32;34026;-67
2023/09/13 06:44:46;;;;;;;11.55;6.05;;;;;;;26.40;39.60;99480.81;4457475;32;34950;-67
2023/09/13 06:47:15;;;;;;;11.50;5.82;;;;;;;26.40;39.64;99481.66;4471218;32;33140;-67
2023/09/13 06:49:44;;;;;;;11.38;5.85;;;;;;;26.41;39.67;99474.28;4483764;32;33776;-67
2023/09/13 06:52:14;;;;;;;;;;;;;;;26.42;39.68;99487.69;4471237;32;32937;-67
2023/09/13 06:54:42;;;;;;;11.90;6.25;;;;;;;26.51;39.55;99485.38;4485029;32;34087;-67
2023/09/13 06:57:12;;;;;;;12.77;5.80;;;;;;;26.44;39.65;99482.00;4483960;32;33382;-67
2023/09/13 06:59:43;;;;;;;15.38;6.57;;;;;;;26.42;39.77;99479.47;4483529;32;33184;-67
2023/09/13 07:02:23;;;;;;;13.27;6.37;;;;;;;26.42;39.85;99476.75;4472043;32;34049;-67
2023/09/13 07:05:03;;;;;;;12.52;6.53;;;;;;;26.44;39.85;99473.81;4483764;32;34495;-67
2023/09/13 07:07:33;;;;;;;17.70;6.70;;;;;;;26.44;39.87;99482.00;4470156;32;34135;-67
2023/09/13 07:10:03;;;;;;;12.95;6.18;;;;;;;26.44;39.90;99479.28;4483288;32;33955;-67
2023/09/13 07:12:31;;;;;;;;;;;;;;;26.44;39.90;99488.31;4471477;32;34564;-67
2023/09/13 07:14:58;;;;;;;16.20;6.12;;;;;;;26.54;39.73;99487.59;4485184;32;34151;-67
2023/09/13 07:17:25;;;;;;;12.60;5.95;;;;;;;26.47;39.87;99492.41;4484658;32;33954;-67
2023/09/13 07:19:55;;;;;;;13.27;6.20;;;;;;;26.45;39.87;99487.22;4470669;32;32845;-67
2023/09/13 07:22:23;;;;;;;9.65;5.57;;;;;;;26.45;39.93;99484.47;4483427;32;34813;-67
2023/09/13 07:24:52;;;;;;;15.63;6.70;;;;;;;26.47;40.05;99495.16;4483342;32;34516;-67
2023/09/13 07:27:21;;;;;;;13.57;7.28;;;;;;;26.47;40.07;99495.16;4484426;32;33163;-67
2023/09/13 07:29:49;;;;;;;14.93;6.03;;;;;;;26.48;40.04;99491.34;4483590;32;34585;-67
2023/09/13 07:32:17;;;;;;;12.93;6.68;;;;;;;26.49;40.08;99492.16;4484515;32;34720;-68
2023/09/13 07:34:45;;;;;;;10.88;6.60;;;;;;;26.49;40.06;99490.28;4470537;32;33469;-69
2023/09/13 07:37:13;;;;;;;16.90;7.12;;;;;;;26.50;40.20;99493.84;4470534;32;32188;-67
2023/09/13 07:39:42;;;;;;;11.35;6.15;;;;;;;26.49;40.34;99490.28;4483216;32;33079;-67
2023/09/13 07:42:11;;;;;;;14.23;6.55;;;;;;;26.50;40.53;99486.44;4458045;32;33590;-66
2023/09/13 07:44:38;;;;;;;14.32;6.70;;;;;;;26.53;40.71;99493.31;4483306;32;34476;-67
2023/09/13 07:47:06;;;;;;;18.83;7.12;;;;;;;26.54;40.91;99493.06;4484535;32;33501;-67
2023/09/13 07:49:33;;;;;;;12.35;6.55;;;;;;;26.54;41.10;99497.72;4470225;32;32727;-67
2023/09/13 07:52:01;;;;;;;20.17;7.18;;;;;;;26.55;41.15;99492.00;4483149;32;34769;-67
2023/09/13 07:54:29;;;;;;;16.73;7.53;;;;;;;26.56;41.27;99496.38;4470355;32;33608;-67
2023/09/13 07:56:57;;;;;;;14.45;6.80;;;;;;;26.57;41.50;99498.03;4470441;32;33307;-67
2023/09/13 07:59:25;;;;;;;20.33;7.70;;;;;;;26.59;41.75;99497.78;4483240;32;34606;-67
2023/09/13 08:01:53;;;;;;;16.37;7.05;;;;;;;26.60;41.73;99491.22;4470328;32;32855;-67
2023/09/13 08:04:21;;;;;;;17.42;7.25;;;;;;;26.61;41.78;99495.59;4484521;32;33509;-66
2023/09/13 08:06:49;;;;;;;21.67;7.18;;;;;;;26.62;41.87;99502.72;4483069;32;33449;-67
2023/09/13 08:09:16;;;;;;;14.05;6.90;;;;;;;26.63;42.02;99505.22;4483173;32;33874;-67
2023/09/13 08:11:45;;;;;;;19.15;6.72;;;;;;;26.63;41.91;99505.22;4484280;32;33847;-67
2023/09/13 08:14:12;;;;;;;14.30;6.30;;;;;;;26.64;41.88;99503.31;4483058;32;33852;-67
2023/09/13 08:16:40;;;;;;;17.33;6.20;;;;;;;26.65;41.88;99511.25;4483118;32;34337;-67
2023/09/13 08:19:08;;;;;;;12.50;6.28;;;;;;;26.66;41.87;99509.34;4457453;32;32638;-67
2023/09/13 08:21:35;;;;;;;12.15;6.70;;;;;;;26.66;41.90;99504.69;4457283;32;34028;-67
2023/09/13 08:24:03;;;;;;;11.38;7.05;;;;;;;26.66;41.91;99510.16;4457196;32;33728;-68
2023/09/13 08:26:31;;;;;;;11.57;6.60;;;;;;;26.68;41.80;99509.94;4470179;32;33505;-67
2023/09/13 08:29:03;;;;;;;13.73;7.18;;;;;;;26.70;41.78;99510.50;4481746;31;33740;-67
2023/09/13 08:31:30;;;;;;;17.27;7.82;;;;;;;26.70;41.70;99505.03;4475076;31;33952;-68
2023/09/13 08:33:58;;;;;;;14.50;6.97;;;;;;;26.74;41.68;99499.88;4484260;32;33819;-67
2023/09/13 08:36:26;;;;;;;12.68;6.90;;;;;;;26.73;41.71;99498.22;4482762;32;33488;-67
2023/09/13 08:38:53;;;;;;;16.20;7.57;;;;;;;26.75;41.62;99510.56;4482900;32;34630;-67
2023/09/13 08:41:21;;;;;;;16.02;7.45;;;;;;;26.77;41.54;99515.78;4482873;32;33548;-67
2023/09/13 08:43:48;;;;;;;15.23;7.25;;;;;;;26.77;41.58;99515.78;4443614;32;32917;-68
2023/09/13 08:46:16;;;;;;;13.75;7.78;;;;;;;26.80;41.54;99518.00;4484724;31;33833;-67
2023/09/13 08:48:44;;;;;;;15.45;7.70;;;;;;;26.80;41.55;99518.00;4463500;32;33418;-67
2023/09/13 08:51:12;;;;;;;13.15;7.85;;;;;;;26.80;41.54;99527.03;4466945;32;33493;-67
2023/09/13 08:53:40;;;;;;;19.37;7.78;;;;;;;26.82;41.54;99527.63;4463166;32;32746;-67
2023/09/13 08:56:07;;;;;;;13.48;7.22;;;;;;;26.82;41.54;99527.63;4467084;32;33253;-67
2023/09/13 08:58:35;;;;;;;12.98;7.53;;;;;;;26.84;41.55;99527.34;4467414;32;34631;-67
2023/09/13 09:01:04;;;;;;;15.85;7.55;;;;;;;26.84;41.52;99527.34;4466569;32;34101;-67
2023/09/13 09:03:32;;;;;;;16.25;7.22;;;;;;;26.84;41.58;99528.19;4466119;32;33488;-67
2023/09/13 09:05:59;;;;;;;12.85;7.30;;;;;;;26.86;41.52;99528.78;4469803;32;34110;-67
2023/09/13 09:08:27;;;;;;;13.38;7.32;;;;;;;26.86;41.46;99526.03;4458415;32;34061;-67
2023/09/13 09:10:57;;;;;;;12.18;6.55;;;;;;;26.86;41.43;99517.81;4467161;32;34585;-67
2023/09/13 09:13:24;;;;;;;;;;;;;;;26.87;41.40;99519.47;4476025;32;35475;-67
2023/09/13 09:15:52;;;;;;;12.70;7.15;;;;;;;26.96;41.19;99534.34;4454476;32;32546;-67
2023/09/13 09:18:20;;;;;;;13.35;6.53;;;;;;;26.91;41.34;99528.81;4454576;32;33815;-67
2023/09/13 09:20:48;;;;;;;12.80;7.12;;;;;;;26.90;41.35;99527.16;4462399;31;33706;-69
2023/09/13 09:23:15;;;;;;;14.27;7.00;;;;;;;26.89;41.34;99535.63;4467551;31;33798;-68
2023/09/13 09:25:44;;;;;;;12.93;7.12;;;;;;;26.90;41.32;99538.09;4470383;31;33188;-68
2023/09/13 09:28:12;;;;;;;13.23;7.55;;;;;;;26.90;41.36;99531.78;4473143;32;34584;-68
2023/09/13 09:30:40;;;;;;;19.45;7.65;;;;;;;26.91;41.40;99530.75;4475794;32;33835;-69
2023/09/13 09:33:07;;;;;;;11.38;7.28;;;;;;;26.91;41.38;99523.34;4470657;31;34413;-68
2023/09/13 09:35:36;;;;;;;12.60;7.20;;;;;;;26.93;41.40;99525.81;4453040;32;31323;-69
2023/09/13 09:38:06;;;;;;;14.00;7.70;;;;;;;26.97;41.43;99529.72;4468169;32;33585;-68
2023/09/13 09:40:38;;;;;;;12.73;7.53;;;;;;;26.96;41.42;99528.06;4465578;31;34064;-68
2023/09/13 09:43:05;;;;;;;15.48;8.18;;;;;;;26.97;41.51;99524.22;4466213;32;34274;-69
2023/09/13 09:45:33;;;;;;;15.68;8.10;;;;;;;26.99;41.51;99523.97;4453845;32;33010;-68
2023/09/13 09:48:01;;;;;;;14.20;7.87;;;;;;;27.00;41.46;99525.59;4465826;32;33796;-69
2023/09/13 09:50:32;;;;;;;14.75;8.07;;;;;;;27.01;41.43;99522.63;4472715;31;33996;-69
2023/09/13 09:53:06;;;;;;;13.35;8.00;;;;;;;26.99;41.41;99522.03;4467701;32;34543;-69
2023/09/13 09:55:39;;;;;;;12.98;7.80;;;;;;;27.01;41.42;99516.34;4465579;31;32398;-70
2023/09/13 09:58:06;;;;;;;13.88;7.68;;;;;;;27.00;41.63;99514.66;4458404;32;33476;-69
2023/09/13 10:00:48;;;;;;;13.70;8.23;;;;;;;27.02;41.68;99513.31;4474527;32;33941;-70
2023/09/13 10:03:19;;;;;;;12.98;7.32;;;;;;;27.05;41.57;99512.00;4475175;31;33700;-68
2023/09/13 10:05:52;;;;;;;14.52;8.23;;;;;;;27.06;41.47;99506.25;4481323;32;34597;-68
2023/09/13 10:08:29;;;;;;;14.93;8.82;;;;;;;27.07;41.42;99509.81;4465384;32;33071;-68
2023/09/13 10:10:57;;;;;;;14.63;8.02;;;;;;;27.08;41.34;99506.84;4466316;32;33964;-68
2023/09/13 10:13:25;;;;;;;16.42;8.55;;;;;;;27.13;41.44;99498.69;4462464;32;34081;-68
2023/09/13 10:15:53;;;;;;;15.27;7.85;;;;;;;27.13;41.46;99497.84;4469502;32;33473;-68
2023/09/13 10:18:20;;;;;;;16.52;8.20;;;;;;;27.15;41.51;99501.19;4468316;32;33909;-68
2023/09/13 10:20:48;;;;;;;13.25;7.87;;;;;;;27.16;41.50;99500.91;4455166;32;33962;-68
2023/09/13 10:23:15;;;;;;;15.85;8.10;;;;;;;27.17;41.48;99493.53;4455309;32;33788;-68
2023/09/13 10:25:43;;;;;;;14.73;7.70;;;;;;;27.17;41.51;99493.53;4475473;32;33371;-68
2023/09/13 10:28:12;;;;;;;12.07;7.95;;;;;;;27.17;41.50;99488.88;4456162;32;33618;-68
2023/09/13 10:30:40;;;;;;;13.68;8.82;;;;;;;27.18;41.55;99496.00;4459788;32;34379;-68
2023/09/13 10:33:08;;;;;;;12.95;7.93;;;;;;;27.19;41.56;99491.37;4470815;32;33637;-68
2023/09/13 10:35:39;;;;;;;12.35;8.48;;;;;;;27.19;41.59;99494.09;4471033;32;33109;-68
2023/09/13 10:38:15;;;;;;;;;;;;;;;27.19;41.59;99497.66;4484084;32;33834;-68
2023/09/13 10:41:02;;;;;;;14.20;7.93;;;;;;;27.31;41.41;99496.66;4472927;32;33820;-68
2023/09/13 10:43:30;;;;;;;12.00;8.27;;;;;;;27.26;41.53;99493.88;4462349;32;33828;-68
2023/09/13 10:45:59;;;;;;;12.27;7.93;;;;;;;27.22;41.65;99490.81;4460055;32;32005;-68
2023/09/13 10:48:26;;;;;;;11.77;7.62;;;;;;;27.21;41.68;99492.75;4480240;32;33311;-68
2023/09/13 10:50:55;;;;;;;9.80;7.90;;;;;;;27.21;41.66;99487.25;4477071;32;34671;-68
2023/09/13 10:53:23;;;;;;;14.75;8.07;;;;;;;27.21;41.64;99486.44;4469990;32;34766;-68
2023/09/13 10:55:51;;;;;;;12.90;8.20;;;;;;;27.23;41.60;99480.69;4470791;32;34374;-68
2023/09/13 10:58:20;;;;;;;9.75;7.43;;;;;;;27.22;41.63;99482.59;4464415;32;33226;-68
2023/09/13 11:00:50;;;;;;;11.18;8.00;;;;;;;27.25;41.68;99481.28;4461736;32;34658;-68
2023/09/13 11:03:18;;;;;;;12.63;8.27;;;;;;;27.25;41.59;99473.88;4467900;32;34545;-68
2023/09/13 11:05:48;;;;;;;15.73;7.85;;;;;;;27.28;41.31;99478.84;4467758;32;33444;-68
2023/09/13 11:08:27;;;;;;;12.35;7.57;;;;;;;27.28;41.28;99476.13;4467797;32;34557;-68
2023/09/13 11:10:55;;;;;;;13.48;8.25;;;;;;;27.33;41.05;99469.84;4455194;32;33757;-68
2023/09/13 11:13:30;;;;;;;10.13;7.45;;;;;;;27.33;40.82;99467.94;4467739;32;33964;-68
2023/09/13 11:16:01;;;;;;;11.73;7.85;;;;;;;27.34;40.53;99475.06;4468177;32;34161;-68
2023/09/13 11:18:29;;;;;;;10.63;7.75;;;;;;;27.35;40.38;99467.66;4467705;32;34052;-68
2023/09/13 11:20:58;;;;;;;9.95;6.90;;;;;;;27.40;40.01;99467.72;4467893;32;34523;-70
2023/09/13 11:23:26;;;;;;;11.48;7.05;;;;;;;27.48;39.59;99472.72;4467579;32;33634;-69
2023/09/13 11:26:02;;;;;;;12.00;7.15;;;;;;;27.44;39.73;99479.81;4469067;32;33348;-69
2023/09/13 11:28:38;;;;;;;11.10;7.05;;;;;;;27.40;39.71;99462.22;4467931;32;34392;-68
2023/09/13 11:31:08;;;;;;;10.65;7.55;;;;;;;27.45;38.96;99465.00;4468973;32;32771;-68
2023/09/13 11:33:50;;;;;;;9.43;6.82;;;;;;;27.52;38.29;99451.94;4468128;32;33796;-69
2023/09/13 11:36:18;;;;;;;10.60;6.95;;;;;;;27.55;38.20;99459.59;4475111;31;34277;-70